Eastonville, Colorado
Current Conditions -  °F | °C
As of 3:53 PM on Thursday 23 Oct 2014 (Local Time) from KFLY Reporting Station
Clear Clear  
Wind Chill: 68°   Ceiling: Unl
Heat Index: 68°   Visibility: 10mi
Dew Point: 26°   Wind: 10mph
Humidity: 20%   Direction: 200°SSW
Pressure: 30.22"   Gusts: NA
Location:  39.0051°N, 104.503°W
Report Text: KFLY 232153Z AUTO 20009KT 10SM CLR 20/M03 A3022 RMK AO2 T02021033
Loading
Personal Weather Stations






























Interactive Weather Map
Tropical Storm Tracking
New forecast layout! Learn more

10-Day Weather Forecast

Advertisements
Track Severe Weather on mobile